Brownhills, United Kingdom
Current Conditions -  °F | °C
As of 8:20 AM on Tuesday 21 Oct 2014 (Local Time) from EGBB Reporting Station
Light Rain Light Rain  
Wind Chill: 52°   Ceiling: 3400
Heat Index: 52°   Visibility: 6mi
Dew Point: 43°   Wind: 22mph
Humidity: 71%   Direction: 290°WNW
Pressure: 29.5"   Gusts: 37mph
Location:  52.63°N, 1.93°W
Report Text: EGBB 210720Z 29019G32KT 9999 6000E -RA FEW016 SCT022 BKN034 11/06 Q0999 RERA
Loading
Personal Weather Stations






























Interactive Weather Map
Tropical Storm Tracking
New forecast layout! Learn more

10-Day Weather Forecast

Advertisements
Track Severe Weather on mobile